createdAt,value
2018-05-15T00:02:34.377Z,14.51
2018-05-15T00:05:05.318Z,14.70
2018-05-15T00:07:36.168Z,15.23
2018-05-15T00:10:06.955Z,14.87
2018-05-15T00:12:37.981Z,15.14
2018-05-15T00:15:31.207Z,15.07
2018-05-15T00:18:03.063Z,15.00
2018-05-15T00:20:33.870Z,14.88
2018-05-15T00:23:05.923Z,14.99
2018-05-15T00:25:38.991Z,15.18
2018-05-15T00:28:15.050Z,15.16
2018-05-15T00:30:45.925Z,15.11
2018-05-15T00:33:16.746Z,15.03
2018-05-15T00:35:49.966Z,14.76
2018-05-15T00:38:20.974Z,14.82
2018-05-15T00:40:51.753Z,14.69
2018-05-15T00:46:32.554Z,14.12
2018-05-15T00:49:03.418Z,14.06
2018-05-15T00:51:34.159Z,14.42
2018-05-15T00:54:04.981Z,14.47
2018-05-15T00:56:47.879Z,14.43
2018-05-15T00:59:18.673Z,14.34
2018-05-15T01:01:49.157Z,14.32
2018-05-15T01:04:20.247Z,14.46
2018-05-15T01:06:51.089Z,14.50
2018-05-15T01:09:21.994Z,14.30
2018-05-15T01:11:52.736Z,14.20
2018-05-15T01:14:31.773Z,14.26
2018-05-15T01:17:02.554Z,14.00
2018-05-15T01:19:33.249Z,13.54
2018-05-15T01:22:17.225Z,13.72
2018-05-15T01:24:48.040Z,13.82
2018-05-15T01:27:18.803Z,13.59
2018-05-15T01:29:49.649Z,13.62
2018-05-15T01:32:20.189Z,13.64
2018-05-15T01:34:51.204Z,13.69
2018-05-15T01:37:21.960Z,13.45
2018-05-15T01:39:52.782Z,13.45
2018-05-15T01:42:23.462Z,13.54
2018-05-15T01:44:54.338Z,13.00
2018-05-15T01:47:41.408Z,13.12
2018-05-15T01:50:16.103Z,13.53
2018-05-15T01:52:46.682Z,13.35
2018-05-15T01:55:19.005Z,13.50
2018-05-15T01:57:50.925Z,13.56
2018-05-15T02:00:22.889Z,13.56
2018-05-15T02:02:56.054Z,13.30
2018-05-15T02:05:26.802Z,13.00
2018-05-15T02:07:57.691Z,12.95
2018-05-15T02:10:28.995Z,12.93
2018-05-15T02:12:59.734Z,12.43
2018-05-15T02:15:33.378Z,12.75
2018-05-15T02:18:05.701Z,13.04
2018-05-15T02:20:36.663Z,12.63
2018-05-15T02:26:02.490Z,11.67
2018-05-15T02:28:33.306Z,12.06
2018-05-15T02:31:06.104Z,12.12
2018-05-15T02:33:38.941Z,12.54
2018-05-15T02:36:10.986Z,12.60
2018-05-15T02:38:41.894Z,12.81
2018-05-15T02:41:12.613Z,12.74
2018-05-15T02:43:43.395Z,12.82
2018-05-15T02:46:28.494Z,12.89
2018-05-15T02:48:59.274Z,12.80
2018-05-15T02:51:30.710Z,12.65
2018-05-15T02:54:01.499Z,12.62
2018-05-15T02:56:32.231Z,12.71
2018-05-15T02:59:02.961Z,12.56
2018-05-15T03:01:33.964Z,12.54
2018-05-15T03:04:04.901Z,12.38
2018-05-15T03:06:46.716Z,12.44
2018-05-15T03:09:17.526Z,12.60
2018-05-15T03:11:48.467Z,12.49
2018-05-15T03:14:19.182Z,12.53
2018-05-15T03:16:50.378Z,12.52
2018-05-15T03:19:21.190Z,12.35
2018-05-15T03:21:52.626Z,12.35
2018-05-15T03:24:23.521Z,12.19
2018-05-15T03:27:01.923Z,11.88
2018-05-15T03:29:32.601Z,11.72
2018-05-15T03:32:04.598Z,11.88
2018-05-15T03:34:35.330Z,11.00
2018-05-15T03:37:06.133Z,10.91
2018-05-15T03:39:56.562Z,11.36
2018-05-15T03:42:27.319Z,11.25
2018-05-15T03:44:58.097Z,11.04
2018-05-15T03:47:31.041Z,11.31
2018-05-15T03:50:01.827Z,11.34
2018-05-15T03:52:32.603Z,11.67
2018-05-15T03:55:03.517Z,11.10
2018-05-15T03:57:34.586Z,11.39
2018-05-15T04:00:06.190Z,11.47
2018-05-15T04:02:50.409Z,11.39
2018-05-15T04:07:35.084Z,11.78
2018-05-15T04:10:05.935Z,11.70
2018-05-15T04:12:40.517Z,12.02
2018-05-15T04:15:15.752Z,11.97
2018-05-15T04:17:46.490Z,12.07
2018-05-15T04:20:17.466Z,12.15
2018-05-15T04:22:48.300Z,12.21
2018-05-15T04:25:19.131Z,11.89
2018-05-15T04:27:53.885Z,12.19
2018-05-15T04:30:24.604Z,12.37
2018-05-15T04:32:55.360Z,12.45
2018-05-15T04:35:44.336Z,12.62
2018-05-15T04:38:15.074Z,12.66
2018-05-15T04:40:45.985Z,12.75
2018-05-15T04:43:36.274Z,12.82
2018-05-15T04:46:07.048Z,12.92
2018-05-15T04:48:37.841Z,12.97
2018-05-15T04:51:09.246Z,13.07
2018-05-15T04:53:39.970Z,13.13
2018-05-15T04:56:11.850Z,13.21
2018-05-15T04:58:42.317Z,13.41
2018-05-15T05:01:13.206Z,13.48
2018-05-15T05:03:43.721Z,13.48
2018-05-15T05:06:14.792Z,13.56
2018-05-15T05:08:45.233Z,13.49
2018-05-15T05:11:16.018Z,13.72
2018-05-15T05:13:46.745Z,13.67
2018-05-15T05:16:17.161Z,13.82
2018-05-15T05:18:47.765Z,13.70
2018-05-15T05:21:31.608Z,13.89
2018-05-15T05:24:02.254Z,14.03
2018-05-15T05:26:33.288Z,14.08
2018-05-15T05:29:08.310Z,14.04
2018-05-15T05:31:40.262Z,13.94
2018-05-15T05:34:11.018Z,14.05
2018-05-15T05:36:41.841Z,14.06
2018-05-15T05:39:12.614Z,13.53
2018-05-15T05:41:43.710Z,14.04
2018-05-15T05:44:14.486Z,14.25
2018-05-15T05:46:45.322Z,14.15
2018-05-15T05:49:15.798Z,14.15
2018-05-15T05:51:46.234Z,14.16
2018-05-15T05:54:16.970Z,14.23
2018-05-15T05:56:47.966Z,14.36
2018-05-15T05:59:18.657Z,14.60
2018-05-15T06:01:49.499Z,14.60
2018-05-15T06:04:20.282Z,14.24
2018-05-15T06:06:51.819Z,14.34
2018-05-15T06:09:23.822Z,14.74
2018-05-15T06:11:56.909Z,14.53
2018-05-15T06:14:27.633Z,14.36
2018-05-15T06:16:59.042Z,14.63
2018-05-15T06:19:29.884Z,14.69
2018-05-15T06:22:01.088Z,15.00
2018-05-15T06:24:32.187Z,14.61
2018-05-15T06:27:03.199Z,14.83
2018-05-15T06:29:33.678Z,14.70
2018-05-15T06:32:05.162Z,14.74
2018-05-15T06:34:36.141Z,14.80
2018-05-15T06:37:06.773Z,15.16
2018-05-15T06:39:37.470Z,15.34
2018-05-15T06:42:08.289Z,15.45
2018-05-15T06:44:38.817Z,15.32
2018-05-15T06:47:09.909Z,15.65
2018-05-15T06:49:40.316Z,15.86
2018-05-15T06:52:11.464Z,15.61
2018-05-15T06:54:42.002Z,15.85
2018-05-15T06:57:13.011Z,15.92
2018-05-15T06:59:43.842Z,15.60
2018-05-15T07:02:14.625Z,15.69
2018-05-15T07:04:45.763Z,15.26
2018-05-15T07:07:16.821Z,15.53
2018-05-15T07:09:47.510Z,15.62
2018-05-15T07:12:18.218Z,15.53
2018-05-15T07:14:49.009Z,14.77
2018-05-15T07:17:19.745Z,15.20
2018-05-15T07:19:50.494Z,15.44
2018-05-15T07:22:21.210Z,15.56
2018-05-15T07:24:51.885Z,15.75
2018-05-15T07:27:22.935Z,15.54
2018-05-15T07:29:58.475Z,15.70
2018-05-15T07:32:29.549Z,16.04
2018-05-15T07:35:00.302Z,15.68
2018-05-15T07:37:35.430Z,15.85
2018-05-15T07:40:06.322Z,15.86
2018-05-15T07:42:37.321Z,16.03
2018-05-15T07:45:10.308Z,15.91
2018-05-15T07:47:41.089Z,15.88
2018-05-15T07:50:24.891Z,15.36
2018-05-15T07:52:55.729Z,15.57
2018-05-15T07:55:26.453Z,15.52
2018-05-15T07:57:57.633Z,15.50
2018-05-15T08:00:28.482Z,15.81
2018-05-15T08:02:59.335Z,16.08
2018-05-15T08:05:30.085Z,15.81
2018-05-15T08:08:01.201Z,15.93
2018-05-15T08:10:31.990Z,16.21
2018-05-15T08:13:05.086Z,16.23
2018-05-15T08:15:36.573Z,16.61
2018-05-15T08:18:08.657Z,16.07
2018-05-15T08:20:40.382Z,15.85
2018-05-15T08:23:12.156Z,16.36
2018-05-15T08:25:42.775Z,16.75
2018-05-15T08:28:13.500Z,16.84
2018-05-15T08:30:44.326Z,16.22
2018-05-15T08:33:16.711Z,16.27
2018-05-15T08:35:47.441Z,16.53
2018-05-15T08:38:18.546Z,16.54
2018-05-15T08:40:49.250Z,16.69
2018-05-15T08:43:19.979Z,16.79
2018-05-15T08:45:55.794Z,16.57
2018-05-15T08:48:26.934Z,16.31
2018-05-15T08:50:57.641Z,16.77
2018-05-15T08:53:40.845Z,17.10
2018-05-15T08:56:11.647Z,16.95
2018-05-15T08:58:42.498Z,16.93
2018-05-15T09:01:13.244Z,16.32
2018-05-15T09:03:44.221Z,16.74
2018-05-15T09:06:16.188Z,16.70
2018-05-15T09:08:47.870Z,16.63
2018-05-15T09:11:18.586Z,16.80
2018-05-15T09:13:49.814Z,16.83
2018-05-15T09:16:20.619Z,16.84
2018-05-15T09:18:52.833Z,16.71
2018-05-15T09:21:23.776Z,17.38
2018-05-15T09:23:54.621Z,17.73
2018-05-15T09:26:26.840Z,18.16
2018-05-15T09:28:57.253Z,17.64
2018-05-15T09:31:27.911Z,17.47
2018-05-15T09:33:58.742Z,17.48
2018-05-15T09:36:29.614Z,17.82
2018-05-15T09:39:00.341Z,18.01
2018-05-15T09:41:31.185Z,17.91
2018-05-15T09:44:01.893Z,17.85
2018-05-15T09:46:32.674Z,17.51
2018-05-15T09:49:03.864Z,17.49
2018-05-15T09:51:34.635Z,17.81
2018-05-15T09:54:12.889Z,18.02
2018-05-15T09:56:44.124Z,18.29
2018-05-15T09:59:14.978Z,18.18
2018-05-15T10:01:45.633Z,18.50
2018-05-15T10:04:16.430Z,18.28
2018-05-15T10:09:46.466Z,17.75
2018-05-15T10:12:17.439Z,17.80
2018-05-15T10:14:48.895Z,17.39
2018-05-15T10:17:19.619Z,17.64
2018-05-15T10:19:50.813Z,18.17
2018-05-15T10:22:21.582Z,17.97
2018-05-15T10:24:52.382Z,17.69
2018-05-15T10:27:23.161Z,17.28
2018-05-15T10:29:54.115Z,17.47
2018-05-15T10:32:24.906Z,17.53
2018-05-15T10:34:56.954Z,17.12
2018-05-15T10:37:27.755Z,17.18
2018-05-15T10:39:58.869Z,17.22
2018-05-15T10:42:29.449Z,17.30
2018-05-15T10:44:59.861Z,17.38
2018-05-15T10:47:30.899Z,17.78
2018-05-15T10:50:02.333Z,18.46
2018-05-15T10:52:33.022Z,17.80
2018-05-15T10:55:11.626Z,18.29
2018-05-15T10:57:42.380Z,18.76
2018-05-15T11:00:13.540Z,18.62
2018-05-15T11:02:44.442Z,18.95
2018-05-15T11:05:16.394Z,18.12
2018-05-15T11:07:47.906Z,18.52
2018-05-15T11:10:31.385Z,18.26
2018-05-15T11:13:02.281Z,17.80
2018-05-15T11:15:32.998Z,17.57
2018-05-15T11:18:15.442Z,17.82
2018-05-15T11:20:57.231Z,18.10
2018-05-15T11:23:42.201Z,18.03
2018-05-15T11:26:13.656Z,17.76
2018-05-15T11:28:45.214Z,18.00
2018-05-15T11:31:17.346Z,18.33
2018-05-15T11:33:48.482Z,18.76
2018-05-15T11:36:19.266Z,18.75
2018-05-15T11:38:49.752Z,18.70
2018-05-15T11:41:20.879Z,18.65
2018-05-15T11:43:52.230Z,19.14
2018-05-15T11:46:22.969Z,19.42
2018-05-15T11:48:54.095Z,18.80
2018-05-15T11:51:25.176Z,18.96
2018-05-15T11:53:55.130Z,19.23
2018-05-15T11:56:27.174Z,19.07
2018-05-15T11:58:57.781Z,18.84
2018-05-15T12:01:29.091Z,18.76
2018-05-15T12:03:59.830Z,18.72
2018-05-15T12:06:47.487Z,18.72
2018-05-15T12:09:18.317Z,18.70
2018-05-15T12:11:49.174Z,18.88
2018-05-15T12:14:19.990Z,18.80
2018-05-15T12:16:52.017Z,19.06
2018-05-15T12:19:22.862Z,18.47
2018-05-15T12:21:53.973Z,18.43
2018-05-15T12:24:24.720Z,18.25
2018-05-15T12:26:55.212Z,18.46
2018-05-15T12:29:26.374Z,18.51
2018-05-15T12:31:57.625Z,18.64
2018-05-15T12:34:28.426Z,18.65
2018-05-15T12:36:59.173Z,18.65
2018-05-15T12:39:29.930Z,18.56
2018-05-15T12:42:01.350Z,18.32
2018-05-15T12:44:32.808Z,17.34
2018-05-15T12:47:03.242Z,16.86
2018-05-15T12:49:33.968Z,16.43
2018-05-15T12:52:06.098Z,16.59
2018-05-15T12:54:36.900Z,16.45
2018-05-15T12:57:29.438Z,16.33
2018-05-15T13:00:00.212Z,15.77
2018-05-15T13:02:31.380Z,15.54
2018-05-15T13:05:04.030Z,15.82
2018-05-15T13:07:35.041Z,15.72
2018-05-15T13:10:05.944Z,15.86
2018-05-15T13:12:36.915Z,16.02
2018-05-15T13:15:07.982Z,15.44
2018-05-15T13:17:39.634Z,14.49
2018-05-15T13:20:11.493Z,15.02
2018-05-15T13:22:45.370Z,15.53
2018-05-15T13:25:15.775Z,15.30
2018-05-15T13:27:46.534Z,15.40
2018-05-15T13:30:17.802Z,15.93
2018-05-15T13:32:48.874Z,15.79
2018-05-15T13:35:19.787Z,16.65
2018-05-15T13:37:50.503Z,16.99
2018-05-15T13:40:23.661Z,17.23
2018-05-15T13:42:54.433Z,17.53
2018-05-15T13:45:25.158Z,17.32
2018-05-15T13:47:55.893Z,17.40
2018-05-15T13:50:27.474Z,17.63
2018-05-15T13:52:59.331Z,17.35
2018-05-15T13:55:33.633Z,17.13
2018-05-15T13:58:06.330Z,17.85
2018-05-15T14:00:37.231Z,17.63
2018-05-15T14:03:09.547Z,18.26
2018-05-15T14:05:40.278Z,18.53
2018-05-15T14:08:13.370Z,18.80
2018-05-15T14:10:43.921Z,18.50
2018-05-15T14:13:21.478Z,18.69
2018-05-15T14:15:52.216Z,18.62
2018-05-15T14:18:23.273Z,18.65
2018-05-15T14:21:08.559Z,19.31
2018-05-15T14:23:39.274Z,19.00
2018-05-15T14:26:09.954Z,19.23
2018-05-15T14:28:49.618Z,19.08
2018-05-15T14:31:20.414Z,19.71
2018-05-15T14:33:51.164Z,19.10
2018-05-15T14:36:22.059Z,18.86
2018-05-15T14:38:53.102Z,17.80
2018-05-15T14:41:32.598Z,18.39
2018-05-15T14:44:03.628Z,18.12
2018-05-15T14:46:34.368Z,18.06
2018-05-15T14:49:05.197Z,17.62
2018-05-15T14:51:48.243Z,17.43
2018-05-15T14:54:19.420Z,17.48
2018-05-15T14:56:50.289Z,17.25
2018-05-15T14:59:21.415Z,16.00
2018-05-15T15:01:51.933Z,16.20
2018-05-15T15:04:22.362Z,17.08
2018-05-15T15:06:52.777Z,17.42
2018-05-15T15:09:23.185Z,17.52
2018-05-15T15:11:53.946Z,17.11
2018-05-15T15:14:24.811Z,17.42
2018-05-15T15:16:55.593Z,17.24
2018-05-15T15:19:26.737Z,17.10
2018-05-15T15:21:57.487Z,17.11
2018-05-15T15:24:41.586Z,16.83
2018-05-15T15:27:11.998Z,16.67
2018-05-15T15:29:42.813Z,16.46
2018-05-15T15:32:13.557Z,16.39
2018-05-15T15:34:44.382Z,16.70
2018-05-15T15:37:15.717Z,16.70
2018-05-15T15:39:46.399Z,15.72
2018-05-15T15:42:17.226Z,14.86
2018-05-15T15:44:47.691Z,14.92
2018-05-15T15:47:18.148Z,14.17
2018-05-15T15:49:50.811Z,14.08
2018-05-15T15:52:21.822Z,13.50
2018-05-15T15:54:52.640Z,14.35
2018-05-15T15:57:23.408Z,13.47
2018-05-15T15:59:54.477Z,13.46
2018-05-15T16:02:25.373Z,13.70
2018-05-15T16:08:09.630Z,14.64
2018-05-15T16:10:40.421Z,14.66
2018-05-15T16:13:12.413Z,14.95
2018-05-15T16:15:43.633Z,15.01
2018-05-15T16:18:14.428Z,14.64
2018-05-15T16:20:46.558Z,14.75
2018-05-15T16:23:17.337Z,15.08
2018-05-15T16:25:48.158Z,15.10
2018-05-15T16:28:33.920Z,15.08
2018-05-15T16:31:05.009Z,15.01
2018-05-15T16:33:35.426Z,14.91
2018-05-15T16:36:06.321Z,14.68
2018-05-15T16:38:36.746Z,15.03
2018-05-15T16:41:07.182Z,14.96
2018-05-15T16:43:37.581Z,15.18
2018-05-15T16:46:07.997Z,15.08
2018-05-15T16:48:38.446Z,15.25
2018-05-15T16:51:08.844Z,14.99
2018-05-15T16:53:39.643Z,15.28
2018-05-15T16:59:05.822Z,15.39
2018-05-15T17:01:36.830Z,15.50
2018-05-15T17:04:07.628Z,15.34
2018-05-15T17:06:38.462Z,15.32
2018-05-15T17:09:09.245Z,15.62
2018-05-15T17:12:01.183Z,15.50
2018-05-15T17:14:32.156Z,15.62
2018-05-15T17:17:03.112Z,15.44
2018-05-15T17:19:34.793Z,15.56
2018-05-15T17:22:06.188Z,15.04
2018-05-15T17:24:37.120Z,15.35
2018-05-15T17:27:09.243Z,15.21
2018-05-15T17:29:40.043Z,15.12
2018-05-15T17:32:11.289Z,15.37
2018-05-15T17:34:42.085Z,15.45
2018-05-15T17:37:13.061Z,15.44
2018-05-15T17:39:43.724Z,15.28
2018-05-15T17:42:20.716Z,15.32
2018-05-15T17:44:51.590Z,15.30
2018-05-15T17:47:22.697Z,15.12
2018-05-15T17:49:53.329Z,15.25
2018-05-15T17:52:24.045Z,15.31
2018-05-15T17:54:54.856Z,15.18
2018-05-15T17:57:26.957Z,15.11
2018-05-15T17:59:57.615Z,15.37
2018-05-15T18:02:28.377Z,15.36
2018-05-15T18:04:58.785Z,15.02
2018-05-15T18:07:29.405Z,15.26
2018-05-15T18:10:01.169Z,15.18
2018-05-15T18:15:32.672Z,15.19
2018-05-15T18:18:05.829Z,15.13
2018-05-15T18:20:38.533Z,15.10
2018-05-15T18:23:10.577Z,15.02
2018-05-15T18:25:41.239Z,15.14
2018-05-15T18:28:12.324Z,15.14
2018-05-15T18:30:44.534Z,15.19
2018-05-15T18:33:15.321Z,15.12
2018-05-15T18:35:46.119Z,15.07
2018-05-15T18:38:19.446Z,15.05
2018-05-15T18:40:50.626Z,14.92
2018-05-15T18:43:22.321Z,14.87
2018-05-15T18:45:53.117Z,14.82
2018-05-15T18:48:24.347Z,14.92
2018-05-15T18:50:56.364Z,14.80
2018-05-15T18:53:27.153Z,14.89
2018-05-15T18:55:58.783Z,14.84
2018-05-15T18:58:29.314Z,14.97
2018-05-15T19:00:59.715Z,14.93
2018-05-15T19:03:30.746Z,14.57
2018-05-15T19:06:01.361Z,14.93
2018-05-15T19:08:33.849Z,14.79
2018-05-15T19:11:04.876Z,14.69
2018-05-15T19:13:35.610Z,14.41
2018-05-15T19:16:06.605Z,14.62
2018-05-15T19:18:39.289Z,14.55
2018-05-15T19:21:10.098Z,14.50
2018-05-15T19:23:41.262Z,14.27
2018-05-15T19:26:11.909Z,14.31
2018-05-15T19:28:43.204Z,14.24
2018-05-15T19:31:22.661Z,14.17
2018-05-15T19:33:53.786Z,14.28
2018-05-15T19:36:28.750Z,14.12
2018-05-15T19:39:04.053Z,14.21
2018-05-15T19:41:36.905Z,14.07
2018-05-15T19:44:08.597Z,14.03
2018-05-15T19:46:39.417Z,14.27
2018-05-15T19:49:10.432Z,14.08
2018-05-15T19:51:41.522Z,14.31
2018-05-15T19:54:12.227Z,14.38
2018-05-15T19:56:42.814Z,14.13
2018-05-15T19:59:13.444Z,14.01
2018-05-15T20:01:44.245Z,14.03
2018-05-15T20:04:14.665Z,14.07
2018-05-15T20:06:45.361Z,14.09
2018-05-15T20:09:27.862Z,14.05
2018-05-15T20:11:58.385Z,14.00
2018-05-15T20:14:29.508Z,14.14
2018-05-15T20:17:12.868Z,14.00
2018-05-15T20:19:43.561Z,14.00
2018-05-15T20:22:14.326Z,13.90
2018-05-15T20:24:45.418Z,13.85
2018-05-15T20:27:16.282Z,14.13
2018-05-15T20:29:47.110Z,14.26
2018-05-15T20:32:17.877Z,14.30
2018-05-15T20:34:50.805Z,14.30
2018-05-15T20:37:21.648Z,14.17
2018-05-15T20:39:52.704Z,14.14
2018-05-15T20:42:23.537Z,14.26
2018-05-15T20:44:55.110Z,14.26
2018-05-15T20:47:33.132Z,14.15
2018-05-15T20:50:04.399Z,14.28
2018-05-15T20:52:35.086Z,14.15
2018-05-15T20:55:06.187Z,14.40
2018-05-15T20:57:37.110Z,14.44
2018-05-15T21:00:08.839Z,14.15
2018-05-15T21:02:40.178Z,14.44
2018-05-15T21:05:12.398Z,14.41
2018-05-15T21:07:43.245Z,14.34
2018-05-15T21:10:16.194Z,14.38
2018-05-15T21:12:47.066Z,13.90
2018-05-15T21:15:20.351Z,14.16
2018-05-15T21:17:56.814Z,14.29
2018-05-15T21:20:29.413Z,14.12
2018-05-15T21:23:00.110Z,14.39
2018-05-15T21:25:32.574Z,14.46
2018-05-15T21:28:04.270Z,14.32
2018-05-15T21:30:35.289Z,14.37
2018-05-15T21:33:05.749Z,14.09
2018-05-15T21:35:37.666Z,14.31
2018-05-15T21:38:09.422Z,14.45
2018-05-15T21:40:39.846Z,14.37
2018-05-15T21:43:11.185Z,14.37
2018-05-15T21:45:41.758Z,14.40
2018-05-15T21:48:12.211Z,14.55
2018-05-15T21:50:43.357Z,14.21
2018-05-15T21:53:14.824Z,14.24
2018-05-15T21:55:45.623Z,14.26
2018-05-15T21:58:21.293Z,13.93
2018-05-15T22:00:52.101Z,14.16
2018-05-15T22:03:22.770Z,13.92
2018-05-15T22:05:53.780Z,14.17
2018-05-15T22:08:24.489Z,14.34
2018-05-15T22:10:55.514Z,14.29
2018-05-15T22:13:37.481Z,14.42
2018-05-15T22:16:25.123Z,13.99
2018-05-15T22:19:12.470Z,13.76
2018-05-15T22:22:00.766Z,13.77
2018-05-15T22:24:37.484Z,14.01
2018-05-15T22:27:08.810Z,13.84
2018-05-15T22:29:39.654Z,14.12
2018-05-15T22:32:10.478Z,14.31
2018-05-15T22:34:41.627Z,14.30
2018-05-15T22:37:12.491Z,14.28
2018-05-15T22:39:43.231Z,14.28
2018-05-15T22:42:15.034Z,14.30
2018-05-15T22:44:45.840Z,13.95
2018-05-15T22:47:16.796Z,13.65
2018-05-15T22:49:47.561Z,14.06
2018-05-15T22:52:18.460Z,14.07
2018-05-15T22:54:56.098Z,13.85
2018-05-15T22:57:26.953Z,13.92
2018-05-15T22:59:57.616Z,13.54
2018-05-15T23:02:28.301Z,13.40
2018-05-15T23:04:59.089Z,13.54
2018-05-15T23:07:32.600Z,13.70
2018-05-15T23:10:04.125Z,13.50
2018-05-15T23:12:35.077Z,13.59
2018-05-15T23:18:05.353Z,13.61
2018-05-15T23:20:37.633Z,13.62
2018-05-15T23:23:10.765Z,13.52
2018-05-15T23:25:41.601Z,13.54
2018-05-15T23:28:14.629Z,13.47
2018-05-15T23:30:45.525Z,13.61
2018-05-15T23:33:18.746Z,13.14
2018-05-15T23:35:55.672Z,13.12
2018-05-15T23:38:26.533Z,13.25
2018-05-15T23:40:57.203Z,13.54
2018-05-15T23:43:28.166Z,12.89
2018-05-15T23:45:59.066Z,13.13
2018-05-15T23:48:33.473Z,12.97
2018-05-15T23:51:04.702Z,13.47
2018-05-15T23:53:38.780Z,12.95
2018-05-15T23:56:10.142Z,13.42
2018-05-15T23:58:40.993Z,13.43
